Argyle, MO

9:11 PM CDT on September 21, 2014 (GMT -0500)
Vienna, MO | Change Station
CLOSE
Current Station
Personal Weather Station
Location: Vienna, MO
Elevation: 830 ft
Nearby Weather Stations

Elev 830 ft 38.19 °N, 91.94 °W | Updated 3 minutes ago

Clear
Clear
62.8 °F
Feels Like 62.8 °F
N
2.7
Wind Variable Wind from ESE

Today
High -- | Low -- °F
--% Chance of Precip.
Yesterday
High -- | Low -- °F
Precip. -- in
6:54 AM 7:06 PM
Waning Crescent, 4% visible
Pressure 30.13 in
Visibility 10.0 miles
Clouds Clear
Dew Point 51 °F
Humidity 66%
Rainfall 0.00 in
Snow Depth Not available.
UV 0 out of 12
Pollen 6.30 out of 12
Air Quality Not available.
Flu Activity Not available.
METAR KVIH 220153Z AUTO 35007KT 10SM CLR 16/09 A3015 RMK AO2 SLP202 T01610089

More Conditions Fewer Conditions

Pressure 30.13 in
Visibility 10.0 miles
Clouds Clear
Dew Point 51 °F
Humidity 66%
Rainfall 0.00 in
Snow Depth Not available.
UV 0 out of 12
Pollen 6.30 out of 12
Air Quality Not available.
Flu Activity Not available.
METAR KVIH 220153Z AUTO 35007KT 10SM CLR 16/09 A3015 RMK AO2 SLP202 T01610089

More Conditions Fewer Conditions

10-Day Weather Forecast

Almanac

Astronomy

Sep. 21, 2014 Rise Set
Actual Time 6:54 AM CDT 7:06 PM CDT
Civil Twilight 6:28 AM CDT 7:32 PM CDT
Nautical Twilight 5:57 AM CDT 8:03 PM CDT
Astronomical Twilight 5:26 AM CDT 8:35 PM CDT
Moon 4:30 AM CDT (9/21) 5:41 PM CDT (9/21)
Length of Visible Light 13h 04m
Length of Day
12h 11m
Tomorrow will be 2m 27s shorter.
Waning Crescent, 4% of the Moon is Illuminated
Today
Waning Crescent
Sep 24
New
Oct 1
First Quarter
Oct 8
Full
Oct 15
Last Quarter

Today's Extremes

State Highs State Lows

Community

WunderPhotos

Upload Photos

1,755,347 photos uploaded!

WunderBlogs® & News

Nearby

Snow Depth

Station Depth Elevation
No new snow has been reported.

Earthquake Activity

City Distance Mag. Time & Date
No recent earthquake activity has been reported nearby.
Minimum magnitude displayed is 2.5.

Coastal Water Temperatures

Place Temperature
No Stations Reporting

Nearby Weather Stations